sensor_id;sensor_type;location;lat;lon;timestamp;temperature;humidity
57026;DHT22;43961;52.940;6.834;2024-02-21T00:01:53;9.20;99.90
57026;DHT22;43961;52.940;6.834;2024-02-21T00:04:19;9.20;99.90
57026;DHT22;43961;52.940;6.834;2024-02-21T00:06:45;9.30;99.90
57026;DHT22;43961;52.940;6.834;2024-02-21T00:09:10;9.30;99.90
57026;DHT22;43961;52.940;6.834;2024-02-21T00:11:36;9.30;99.90
57026;DHT22;43961;52.940;6.834;2024-02-21T00:14:01;9.20;99.90
57026;DHT22;43961;52.940;6.834;2024-02-21T00:16:28;9.30;99.90
57026;DHT22;43961;52.940;6.834;2024-02-21T00:18:54;9.30;99.90
57026;DHT22;43961;52.940;6.834;2024-02-21T00:21:19;9.30;99.90
57026;DHT22;43961;52.940;6.834;2024-02-21T00:23:45;9.30;99.90
57026;DHT22;43961;52.940;6.834;2024-02-21T00:26:15;9.30;99.90
57026;DHT22;43961;52.940;6.834;2024-02-21T00:28:41;9.30;99.90
57026;DHT22;43961;52.940;6.834;2024-02-21T00:31:07;9.30;99.90
57026;DHT22;43961;52.940;6.834;2024-02-21T00:33:32;9.30;99.90
57026;DHT22;43961;52.940;6.834;2024-02-21T00:35:58;9.30;99.90
57026;DHT22;43961;52.940;6.834;2024-02-21T00:38:24;9.30;99.90
57026;DHT22;43961;52.940;6.834;2024-02-21T00:40:49;9.30;99.90
57026;DHT22;43961;52.940;6.834;2024-02-21T00:43:15;9.30;99.90
57026;DHT22;43961;52.940;6.834;2024-02-21T00:45:40;9.30;99.90
57026;DHT22;43961;52.940;6.834;2024-02-21T00:48:06;9.30;99.90
57026;DHT22;43961;52.940;6.834;2024-02-21T00:50:32;9.30;99.90
57026;DHT22;43961;52.940;6.834;2024-02-21T00:52:58;9.30;99.90
57026;DHT22;43961;52.940;6.834;2024-02-21T00:55:23;9.30;99.90
57026;DHT22;43961;52.940;6.834;2024-02-21T00:57:49;9.30;99.90
57026;DHT22;43961;52.940;6.834;2024-02-21T01:00:15;9.30;99.90
57026;DHT22;43961;52.940;6.834;2024-02-21T01:02:41;9.30;99.90
57026;DHT22;43961;52.940;6.834;2024-02-21T01:05:07;9.30;99.90
57026;DHT22;43961;52.940;6.834;2024-02-21T01:07:32;9.30;99.90
57026;DHT22;43961;52.940;6.834;2024-02-21T01:09:59;9.30;99.90
57026;DHT22;43961;52.940;6.834;2024-02-21T01:12:25;9.30;99.90
57026;DHT22;43961;52.940;6.834;2024-02-21T01:14:51;9.40;99.90
57026;DHT22;43961;52.940;6.834;2024-02-21T01:17:16;9.30;99.90
57026;DHT22;43961;52.940;6.834;2024-02-21T01:19:42;9.30;99.90
57026;DHT22;43961;52.940;6.834;2024-02-21T01:22:08;9.30;99.90
57026;DHT22;43961;52.940;6.834;2024-02-21T01:24:33;9.30;99.90
57026;DHT22;43961;52.940;6.834;2024-02-21T01:26:59;9.30;99.90
57026;DHT22;43961;52.940;6.834;2024-02-21T01:29:25;9.30;99.90
57026;DHT22;43961;52.940;6.834;2024-02-21T01:31:50;9.20;99.90
57026;DHT22;43961;52.940;6.834;2024-02-21T01:34:16;9.20;99.90
57026;DHT22;43961;52.940;6.834;2024-02-21T01:36:41;9.20;99.90
57026;DHT22;43961;52.940;6.834;2024-02-21T01:39:07;9.20;99.90
57026;DHT22;43961;52.940;6.834;2024-02-21T01:41:33;9.20;99.90
57026;DHT22;43961;52.940;6.834;2024-02-21T01:44:00;9.20;99.90
57026;DHT22;43961;52.940;6.834;2024-02-21T01:46:25;9.20;99.90
57026;DHT22;43961;52.940;6.834;2024-02-21T01:48:55;9.20;99.90
57026;DHT22;43961;52.940;6.834;2024-02-21T01:51:21;9.20;99.90
57026;DHT22;43961;52.940;6.834;2024-02-21T01:53:47;9.10;99.90
57026;DHT22;43961;52.940;6.834;2024-02-21T01:56:13;9.10;99.90
57026;DHT22;43961;52.940;6.834;2024-02-21T01:58:40;9.10;99.90
57026;DHT22;43961;52.940;6.834;2024-02-21T02:01:07;9.10;99.90
57026;DHT22;43961;52.940;6.834;2024-02-21T02:03:34;9.10;99.90
57026;DHT22;43961;52.940;6.834;2024-02-21T02:06:00;9.10;99.90
57026;DHT22;43961;52.940;6.834;2024-02-21T02:08:25;9.10;99.90
57026;DHT22;43961;52.940;6.834;2024-02-21T02:10:52;9.00;99.90
57026;DHT22;43961;52.940;6.834;2024-02-21T02:13:17;9.00;99.90
57026;DHT22;43961;52.940;6.834;2024-02-21T02:15:44;9.00;99.90
57026;DHT22;43961;52.940;6.834;2024-02-21T02:18:12;9.00;99.90
57026;DHT22;43961;52.940;6.834;2024-02-21T02:20:38;8.90;99.90
57026;DHT22;43961;52.940;6.834;2024-02-21T02:23:11;8.90;99.90
57026;DHT22;43961;52.940;6.834;2024-02-21T02:25:38;8.90;99.90
57026;DHT22;43961;52.940;6.834;2024-02-21T02:28:05;8.90;99.90
57026;DHT22;43961;52.940;6.834;2024-02-21T02:30:35;8.80;99.90
57026;DHT22;43961;52.940;6.834;2024-02-21T02:33:05;8.80;99.90
57026;DHT22;43961;52.940;6.834;2024-02-21T02:35:31;8.80;99.90
57026;DHT22;43961;52.940;6.834;2024-02-21T02:37:57;8.80;99.90
57026;DHT22;43961;52.940;6.834;2024-02-21T02:40:22;8.80;99.90
57026;DHT22;43961;52.940;6.834;2024-02-21T02:42:49;8.80;99.90
57026;DHT22;43961;52.940;6.834;2024-02-21T02:45:18;8.80;99.90
57026;DHT22;43961;52.940;6.834;2024-02-21T02:47:47;8.80;99.90
57026;DHT22;43961;52.940;6.834;2024-02-21T02:50:13;8.80;99.90
57026;DHT22;43961;52.940;6.834;2024-02-21T02:52:38;8.80;99.90
57026;DHT22;43961;52.940;6.834;2024-02-21T02:55:05;8.80;99.90
57026;DHT22;43961;52.940;6.834;2024-02-21T02:57:31;8.80;99.90
57026;DHT22;43961;52.940;6.834;2024-02-21T02:59:57;8.80;99.90
57026;DHT22;43961;52.940;6.834;2024-02-21T03:02:22;8.80;99.90
57026;DHT22;43961;52.940;6.834;2024-02-21T03:04:49;8.70;99.90
57026;DHT22;43961;52.940;6.834;2024-02-21T03:07:15;8.70;99.90
57026;DHT22;43961;52.940;6.834;2024-02-21T03:09:42;8.70;99.90
57026;DHT22;43961;52.940;6.834;2024-02-21T03:12:08;8.70;99.90
57026;DHT22;43961;52.940;6.834;2024-02-21T03:14:34;8.70;99.90
57026;DHT22;43961;52.940;6.834;2024-02-21T03:17:01;8.70;99.90
57026;DHT22;43961;52.940;6.834;2024-02-21T03:19:28;8.70;99.90
57026;DHT22;43961;52.940;6.834;2024-02-21T03:21:54;8.70;99.90
57026;DHT22;43961;52.940;6.834;2024-02-21T03:24:20;8.70;99.90
57026;DHT22;43961;52.940;6.834;2024-02-21T03:26:46;8.70;99.90
57026;DHT22;43961;52.940;6.834;2024-02-21T03:29:14;8.70;99.90
57026;DHT22;43961;52.940;6.834;2024-02-21T03:31:42;8.70;99.90
57026;DHT22;43961;52.940;6.834;2024-02-21T03:34:10;8.70;99.90
57026;DHT22;43961;52.940;6.834;2024-02-21T03:36:35;8.70;99.90
57026;DHT22;43961;52.940;6.834;2024-02-21T03:39:01;8.70;99.90
57026;DHT22;43961;52.940;6.834;2024-02-21T03:41:27;8.70;99.90
57026;DHT22;43961;52.940;6.834;2024-02-21T03:43:52;8.70;99.90
57026;DHT22;43961;52.940;6.834;2024-02-21T03:46:18;8.70;99.90
57026;DHT22;43961;52.940;6.834;2024-02-21T03:48:44;8.70;99.90
57026;DHT22;43961;52.940;6.834;2024-02-21T03:51:10;8.70;99.90
57026;DHT22;43961;52.940;6.834;2024-02-21T03:53:36;8.70;99.90
57026;DHT22;43961;52.940;6.834;2024-02-21T03:56:02;8.70;99.90
57026;DHT22;43961;52.940;6.834;2024-02-21T03:58:30;8.70;99.90
57026;DHT22;43961;52.940;6.834;2024-02-21T04:00:55;8.70;99.90
57026;DHT22;43961;52.940;6.834;2024-02-21T04:03:21;8.70;99.90
57026;DHT22;43961;52.940;6.834;2024-02-21T04:05:47;8.70;99.90
57026;DHT22;43961;52.940;6.834;2024-02-21T04:08:13;8.70;99.90
57026;DHT22;43961;52.940;6.834;2024-02-21T04:10:39;8.70;99.90
57026;DHT22;43961;52.940;6.834;2024-02-21T04:13:06;8.70;99.90
57026;DHT22;43961;52.940;6.834;2024-02-21T04:15:33;8.70;99.90
57026;DHT22;43961;52.940;6.834;2024-02-21T04:17:59;8.70;99.90
57026;DHT22;43961;52.940;6.834;2024-02-21T04:20:25;8.70;99.90
57026;DHT22;43961;52.940;6.834;2024-02-21T04:22:50;8.70;99.90
57026;DHT22;43961;52.940;6.834;2024-02-21T04:25:16;8.70;99.90
57026;DHT22;43961;52.940;6.834;2024-02-21T04:27:42;8.70;99.90
57026;DHT22;43961;52.940;6.834;2024-02-21T04:30:08;8.70;99.90
57026;DHT22;43961;52.940;6.834;2024-02-21T04:32:35;8.70;99.90
57026;DHT22;43961;52.940;6.834;2024-02-21T04:35:01;8.70;99.90
57026;DHT22;43961;52.940;6.834;2024-02-21T04:37:26;8.70;99.90
57026;DHT22;43961;52.940;6.834;2024-02-21T04:39:52;8.70;99.90
57026;DHT22;43961;52.940;6.834;2024-02-21T04:42:18;8.70;99.90
57026;DHT22;43961;52.940;6.834;2024-02-21T04:44:43;8.70;99.90
57026;DHT22;43961;52.940;6.834;2024-02-21T04:47:09;8.70;99.90
57026;DHT22;43961;52.940;6.834;2024-02-21T04:49:35;8.70;99.90
57026;DHT22;43961;52.940;6.834;2024-02-21T04:52:01;8.70;99.90
57026;DHT22;43961;52.940;6.834;2024-02-21T04:54:26;8.70;99.90
57026;DHT22;43961;52.940;6.834;2024-02-21T04:56:52;8.70;99.90
57026;DHT22;43961;52.940;6.834;2024-02-21T04:59:18;8.70;99.90
57026;DHT22;43961;52.940;6.834;2024-02-21T05:01:43;8.70;99.90
57026;DHT22;43961;52.940;6.834;2024-02-21T05:04:09;8.70;99.90
57026;DHT22;43961;52.940;6.834;2024-02-21T05:06:38;8.70;99.90
57026;DHT22;43961;52.940;6.834;2024-02-21T05:09:05;8.70;99.90
57026;DHT22;43961;52.940;6.834;2024-02-21T05:11:31;8.70;99.90
57026;DHT22;43961;52.940;6.834;2024-02-21T05:13:56;8.70;99.90
57026;DHT22;43961;52.940;6.834;2024-02-21T05:16:22;8.70;99.90
57026;DHT22;43961;52.940;6.834;2024-02-21T05:18:48;8.70;99.90
57026;DHT22;43961;52.940;6.834;2024-02-21T05:21:13;8.70;99.90
57026;DHT22;43961;52.940;6.834;2024-02-21T05:23:39;8.70;99.90
57026;DHT22;43961;52.940;6.834;2024-02-21T05:26:05;8.70;99.90
57026;DHT22;43961;52.940;6.834;2024-02-21T05:28:31;8.70;99.90
57026;DHT22;43961;52.940;6.834;2024-02-21T05:30:57;8.70;99.90
57026;DHT22;43961;52.940;6.834;2024-02-21T05:33:22;8.70;99.90
57026;DHT22;43961;52.940;6.834;2024-02-21T05:35:48;8.70;99.90
57026;DHT22;43961;52.940;6.834;2024-02-21T05:38:14;8.70;99.90
57026;DHT22;43961;52.940;6.834;2024-02-21T05:40:40;8.70;99.90
57026;DHT22;43961;52.940;6.834;2024-02-21T05:43:08;8.70;99.90
57026;DHT22;43961;52.940;6.834;2024-02-21T05:45:34;8.70;99.90
57026;DHT22;43961;52.940;6.834;2024-02-21T05:48:01;8.70;99.90
57026;DHT22;43961;52.940;6.834;2024-02-21T05:50:28;8.70;99.90
57026;DHT22;43961;52.940;6.834;2024-02-21T05:52:57;8.70;99.90
57026;DHT22;43961;52.940;6.834;2024-02-21T05:55:22;8.70;99.90
57026;DHT22;43961;52.940;6.834;2024-02-21T05:57:48;8.70;99.90
57026;DHT22;43961;52.940;6.834;2024-02-21T06:00:14;8.70;99.90
57026;DHT22;43961;52.940;6.834;2024-02-21T06:02:41;8.70;99.90
57026;DHT22;43961;52.940;6.834;2024-02-21T06:05:08;8.70;99.90
57026;DHT22;43961;52.940;6.834;2024-02-21T06:07:34;8.70;99.90
57026;DHT22;43961;52.940;6.834;2024-02-21T06:10:02;8.70;99.90
57026;DHT22;43961;52.940;6.834;2024-02-21T06:12:28;8.70;99.90
57026;DHT22;43961;52.940;6.834;2024-02-21T06:14:54;8.70;99.90
57026;DHT22;43961;52.940;6.834;2024-02-21T06:17:19;8.70;99.90
57026;DHT22;43961;52.940;6.834;2024-02-21T06:19:45;8.70;99.90
57026;DHT22;43961;52.940;6.834;2024-02-21T06:22:11;8.70;99.90
57026;DHT22;43961;52.940;6.834;2024-02-21T06:24:38;8.70;99.90
57026;DHT22;43961;52.940;6.834;2024-02-21T06:27:04;8.70;99.90
57026;DHT22;43961;52.940;6.834;2024-02-21T06:29:32;8.70;99.90
57026;DHT22;43961;52.940;6.834;2024-02-21T06:31:57;8.70;99.90
57026;DHT22;43961;52.940;6.834;2024-02-21T06:34:23;8.70;99.90
57026;DHT22;43961;52.940;6.834;2024-02-21T06:36:52;8.70;99.90
57026;DHT22;43961;52.940;6.834;2024-02-21T06:39:19;8.70;99.90
57026;DHT22;43961;52.940;6.834;2024-02-21T06:41:44;8.70;99.90
57026;DHT22;43961;52.940;6.834;2024-02-21T06:44:10;8.70;99.90
57026;DHT22;43961;52.940;6.834;2024-02-21T06:46:36;8.70;99.90
57026;DHT22;43961;52.940;6.834;2024-02-21T06:49:02;8.70;99.90
57026;DHT22;43961;52.940;6.834;2024-02-21T06:51:31;8.70;99.90
57026;DHT22;43961;52.940;6.834;2024-02-21T06:53:57;8.70;99.90
57026;DHT22;43961;52.940;6.834;2024-02-21T06:56:24;8.70;99.90
57026;DHT22;43961;52.940;6.834;2024-02-21T06:58:57;8.70;99.90
57026;DHT22;43961;52.940;6.834;2024-02-21T07:01:26;8.70;99.90
57026;DHT22;43961;52.940;6.834;2024-02-21T07:03:51;8.70;99.90
57026;DHT22;43961;52.940;6.834;2024-02-21T07:06:18;8.70;99.90
57026;DHT22;43961;52.940;6.834;2024-02-21T07:08:44;8.70;99.90
57026;DHT22;43961;52.940;6.834;2024-02-21T07:11:09;8.70;99.90
57026;DHT22;43961;52.940;6.834;2024-02-21T07:13:36;8.70;99.90
57026;DHT22;43961;52.940;6.834;2024-02-21T07:16:01;8.70;99.90
57026;DHT22;43961;52.940;6.834;2024-02-21T07:18:27;8.70;99.90
57026;DHT22;43961;52.940;6.834;2024-02-21T07:20:53;8.80;99.90
57026;DHT22;43961;52.940;6.834;2024-02-21T07:23:19;8.70;99.90
57026;DHT22;43961;52.940;6.834;2024-02-21T07:25:46;8.70;99.90
57026;DHT22;43961;52.940;6.834;2024-02-21T07:28:12;8.70;99.90
57026;DHT22;43961;52.940;6.834;2024-02-21T07:30:39;8.80;99.90
57026;DHT22;43961;52.940;6.834;2024-02-21T07:33:04;8.70;99.90
57026;DHT22;43961;52.940;6.834;2024-02-21T07:35:30;8.70;99.90
57026;DHT22;43961;52.940;6.834;2024-02-21T07:37:56;8.80;99.90
57026;DHT22;43961;52.940;6.834;2024-02-21T07:40:23;8.70;99.90
57026;DHT22;43961;52.940;6.834;2024-02-21T07:42:48;8.70;99.90
57026;DHT22;43961;52.940;6.834;2024-02-21T07:45:14;8.80;99.90
57026;DHT22;43961;52.940;6.834;2024-02-21T07:47:40;8.70;99.90
57026;DHT22;43961;52.940;6.834;2024-02-21T07:50:06;8.70;99.90
57026;DHT22;43961;52.940;6.834;2024-02-21T07:52:32;8.70;99.90
57026;DHT22;43961;52.940;6.834;2024-02-21T07:54:58;8.70;99.90
57026;DHT22;43961;52.940;6.834;2024-02-21T07:57:23;8.70;99.90
57026;DHT22;43961;52.940;6.834;2024-02-21T07:59:49;8.70;99.90
57026;DHT22;43961;52.940;6.834;2024-02-21T08:02:15;8.70;99.90
57026;DHT22;43961;52.940;6.834;2024-02-21T08:04:41;8.70;99.90
57026;DHT22;43961;52.940;6.834;2024-02-21T08:07:06;8.70;99.90
57026;DHT22;43961;52.940;6.834;2024-02-21T08:09:32;8.70;99.90
57026;DHT22;43961;52.940;6.834;2024-02-21T08:11:58;8.70;99.90
57026;DHT22;43961;52.940;6.834;2024-02-21T08:14:24;8.70;99.90
57026;DHT22;43961;52.940;6.834;2024-02-21T08:16:51;8.70;99.90
57026;DHT22;43961;52.940;6.834;2024-02-21T08:19:18;8.70;99.90
57026;DHT22;43961;52.940;6.834;2024-02-21T08:21:44;8.70;99.90
57026;DHT22;43961;52.940;6.834;2024-02-21T08:24:13;8.70;99.90
57026;DHT22;43961;52.940;6.834;2024-02-21T08:26:44;8.70;99.90
57026;DHT22;43961;52.940;6.834;2024-02-21T08:29:11;8.70;99.90
57026;DHT22;43961;52.940;6.834;2024-02-21T08:31:37;8.70;99.90
57026;DHT22;43961;52.940;6.834;2024-02-21T08:34:03;8.70;99.90
57026;DHT22;43961;52.940;6.834;2024-02-21T08:36:30;8.70;99.90
57026;DHT22;43961;52.940;6.834;2024-02-21T08:38:56;8.70;99.90
57026;DHT22;43961;52.940;6.834;2024-02-21T08:41:23;8.70;99.90
57026;DHT22;43961;52.940;6.834;2024-02-21T08:43:51;8.70;99.90
57026;DHT22;43961;52.940;6.834;2024-02-21T08:46:17;8.70;99.90
57026;DHT22;43961;52.940;6.834;2024-02-21T08:48:43;8.70;99.90
57026;DHT22;43961;52.940;6.834;2024-02-21T08:51:09;8.80;99.90
57026;DHT22;43961;52.940;6.834;2024-02-21T08:53:35;8.80;99.90
57026;DHT22;43961;52.940;6.834;2024-02-21T08:56:00;8.80;99.90
57026;DHT22;43961;52.940;6.834;2024-02-21T08:58:26;8.80;99.90
57026;DHT22;43961;52.940;6.834;2024-02-21T09:00:52;8.80;99.90
57026;DHT22;43961;52.940;6.834;2024-02-21T09:03:17;8.70;99.90
57026;DHT22;43961;52.940;6.834;2024-02-21T09:05:45;8.70;99.90
57026;DHT22;43961;52.940;6.834;2024-02-21T09:08:12;8.70;99.90
57026;DHT22;43961;52.940;6.834;2024-02-21T09:10:37;8.70;99.90
57026;DHT22;43961;52.940;6.834;2024-02-21T09:13:03;8.80;99.90
57026;DHT22;43961;52.940;6.834;2024-02-21T09:15:29;8.70;99.90
57026;DHT22;43961;52.940;6.834;2024-02-21T09:17:54;8.80;99.90
57026;DHT22;43961;52.940;6.834;2024-02-21T09:20:20;8.80;99.90
57026;DHT22;43961;52.940;6.834;2024-02-21T09:22:46;8.80;99.90
57026;DHT22;43961;52.940;6.834;2024-02-21T09:25:11;8.80;99.90
57026;DHT22;43961;52.940;6.834;2024-02-21T09:27:38;8.80;99.90
57026;DHT22;43961;52.940;6.834;2024-02-21T09:30:05;8.90;99.90
57026;DHT22;43961;52.940;6.834;2024-02-21T09:32:32;8.90;99.90
57026;DHT22;43961;52.940;6.834;2024-02-21T09:34:58;8.90;99.90
57026;DHT22;43961;52.940;6.834;2024-02-21T09:37:24;8.90;99.90
57026;DHT22;43961;52.940;6.834;2024-02-21T09:39:49;9.00;99.90
57026;DHT22;43961;52.940;6.834;2024-02-21T09:42:20;9.00;99.90
57026;DHT22;43961;52.940;6.834;2024-02-21T09:44:46;9.00;99.90
57026;DHT22;43961;52.940;6.834;2024-02-21T09:47:22;9.00;99.90
57026;DHT22;43961;52.940;6.834;2024-02-21T09:49:49;9.00;99.90
57026;DHT22;43961;52.940;6.834;2024-02-21T09:52:19;9.00;99.90
57026;DHT22;43961;52.940;6.834;2024-02-21T09:54:46;9.10;99.90
57026;DHT22;43961;52.940;6.834;2024-02-21T09:57:14;9.10;99.90
57026;DHT22;43961;52.940;6.834;2024-02-21T09:59:40;9.10;99.90
57026;DHT22;43961;52.940;6.834;2024-02-21T10:02:07;9.10;99.90
57026;DHT22;43961;52.940;6.834;2024-02-21T10:04:33;9.20;99.90
57026;DHT22;43961;52.940;6.834;2024-02-21T10:06:59;9.20;99.90
57026;DHT22;43961;52.940;6.834;2024-02-21T10:09:27;9.30;99.90
57026;DHT22;43961;52.940;6.834;2024-02-21T10:11:55;9.30;99.90
57026;DHT22;43961;52.940;6.834;2024-02-21T10:14:20;9.30;99.90
57026;DHT22;43961;52.940;6.834;2024-02-21T10:16:48;9.40;99.90
57026;DHT22;43961;52.940;6.834;2024-02-21T10:19:18;9.40;99.90
57026;DHT22;43961;52.940;6.834;2024-02-21T10:21:44;9.40;99.90
57026;DHT22;43961;52.940;6.834;2024-02-21T10:24:12;9.40;99.90
57026;DHT22;43961;52.940;6.834;2024-02-21T10:26:37;9.40;99.90
57026;DHT22;43961;52.940;6.834;2024-02-21T10:29:03;9.40;99.90
57026;DHT22;43961;52.940;6.834;2024-02-21T10:31:30;9.50;99.90
57026;DHT22;43961;52.940;6.834;2024-02-21T10:33:59;9.50;99.90
57026;DHT22;43961;52.940;6.834;2024-02-21T10:36:28;9.50;99.90
57026;DHT22;43961;52.940;6.834;2024-02-21T10:38:55;9.50;99.90
57026;DHT22;43961;52.940;6.834;2024-02-21T10:41:22;9.50;99.90
57026;DHT22;43961;52.940;6.834;2024-02-21T10:43:51;9.50;99.90
57026;DHT22;43961;52.940;6.834;2024-02-21T10:46:21;9.60;99.90
57026;DHT22;43961;52.940;6.834;2024-02-21T10:48:48;9.60;99.90
57026;DHT22;43961;52.940;6.834;2024-02-21T10:51:20;9.60;99.90
57026;DHT22;43961;52.940;6.834;2024-02-21T10:56:35;9.70;99.90
57026;DHT22;43961;52.940;6.834;2024-02-21T10:59:07;9.70;99.90
57026;DHT22;43961;52.940;6.834;2024-02-21T11:01:33;9.70;99.90
57026;DHT22;43961;52.940;6.834;2024-02-21T11:04:08;9.70;99.90
57026;DHT22;43961;52.940;6.834;2024-02-21T11:06:37;9.80;99.90
57026;DHT22;43961;52.940;6.834;2024-02-21T11:09:07;9.80;99.90
57026;DHT22;43961;52.940;6.834;2024-02-21T11:14:08;9.90;99.90
57026;DHT22;43961;52.940;6.834;2024-02-21T11:16:41;9.90;99.90
57026;DHT22;43961;52.940;6.834;2024-02-21T11:19:08;9.90;99.90
57026;DHT22;43961;52.940;6.834;2024-02-21T11:21:37;9.90;99.90
57026;DHT22;43961;52.940;6.834;2024-02-21T11:24:04;9.90;99.90
57026;DHT22;43961;52.940;6.834;2024-02-21T11:26:30;9.90;99.90
57026;DHT22;43961;52.940;6.834;2024-02-21T11:29:00;9.90;99.90
57026;DHT22;43961;52.940;6.834;2024-02-21T11:31:26;9.90;99.90
57026;DHT22;43961;52.940;6.834;2024-02-21T11:33:53;9.90;99.90
57026;DHT22;43961;52.940;6.834;2024-02-21T11:36:25;9.90;99.90
57026;DHT22;43961;52.940;6.834;2024-02-21T11:38:52;9.90;99.90
57026;DHT22;43961;52.940;6.834;2024-02-21T11:41:21;9.90;99.90
57026;DHT22;43961;52.940;6.834;2024-02-21T11:43:49;9.90;99.90
57026;DHT22;43961;52.940;6.834;2024-02-21T11:46:15;9.90;99.90
57026;DHT22;43961;52.940;6.834;2024-02-21T11:48:41;9.90;99.90
57026;DHT22;43961;52.940;6.834;2024-02-21T11:51:21;9.90;99.90
57026;DHT22;43961;52.940;6.834;2024-02-21T11:53:47;9.90;99.90
57026;DHT22;43961;52.940;6.834;2024-02-21T11:56:14;10.00;99.90
57026;DHT22;43961;52.940;6.834;2024-02-21T11:58:39;10.00;99.90
57026;DHT22;43961;52.940;6.834;2024-02-21T12:01:05;10.00;99.90
57026;DHT22;43961;52.940;6.834;2024-02-21T12:03:32;10.00;99.90
57026;DHT22;43961;52.940;6.834;2024-02-21T12:06:01;10.00;99.90
57026;DHT22;43961;52.940;6.834;2024-02-21T12:08:40;10.00;99.90
57026;DHT22;43961;52.940;6.834;2024-02-21T12:11:16;10.00;99.90
57026;DHT22;43961;52.940;6.834;2024-02-21T12:13:42;10.00;99.90
57026;DHT22;43961;52.940;6.834;2024-02-21T12:16:07;10.00;99.90
57026;DHT22;43961;52.940;6.834;2024-02-21T12:18:33;10.00;99.90
57026;DHT22;43961;52.940;6.834;2024-02-21T12:20:59;10.00;99.90
57026;DHT22;43961;52.940;6.834;2024-02-21T12:23:29;10.00;99.90
57026;DHT22;43961;52.940;6.834;2024-02-21T12:25:55;10.00;99.90
57026;DHT22;43961;52.940;6.834;2024-02-21T12:28:21;10.00;99.90
57026;DHT22;43961;52.940;6.834;2024-02-21T12:30:47;10.00;99.90
57026;DHT22;43961;52.940;6.834;2024-02-21T12:33:13;10.10;99.90
57026;DHT22;43961;52.940;6.834;2024-02-21T12:35:39;10.00;99.90
57026;DHT22;43961;52.940;6.834;2024-02-21T12:38:05;10.00;99.90
57026;DHT22;43961;52.940;6.834;2024-02-21T12:40:31;10.00;99.90
57026;DHT22;43961;52.940;6.834;2024-02-21T12:43:01;10.00;99.90
57026;DHT22;43961;52.940;6.834;2024-02-21T12:45:28;10.00;99.90
57026;DHT22;43961;52.940;6.834;2024-02-21T12:47:54;10.00;99.90
57026;DHT22;43961;52.940;6.834;2024-02-21T12:50:20;10.10;99.90
57026;DHT22;43961;52.940;6.834;2024-02-21T12:52:46;10.10;99.90
57026;DHT22;43961;52.940;6.834;2024-02-21T12:55:11;10.10;99.90
57026;DHT22;43961;52.940;6.834;2024-02-21T12:57:39;10.10;99.90
57026;DHT22;43961;52.940;6.834;2024-02-21T13:00:05;10.10;99.90
57026;DHT22;43961;52.940;6.834;2024-02-21T13:02:34;10.10;99.90
57026;DHT22;43961;52.940;6.834;2024-02-21T13:05:00;10.10;99.90
57026;DHT22;43961;52.940;6.834;2024-02-21T13:07:28;10.00;99.90
57026;DHT22;43961;52.940;6.834;2024-02-21T13:09:54;10.00;99.90
57026;DHT22;43961;52.940;6.834;2024-02-21T13:12:19;10.00;99.90
57026;DHT22;43961;52.940;6.834;2024-02-21T13:14:45;9.90;99.90
57026;DHT22;43961;52.940;6.834;2024-02-21T13:17:11;9.90;99.90
57026;DHT22;43961;52.940;6.834;2024-02-21T13:19:36;9.90;99.90
57026;DHT22;43961;52.940;6.834;2024-02-21T13:22:02;9.90;99.90
57026;DHT22;43961;52.940;6.834;2024-02-21T13:24:29;9.90;99.90
57026;DHT22;43961;52.940;6.834;2024-02-21T13:26:54;10.00;99.90
57026;DHT22;43961;52.940;6.834;2024-02-21T13:29:20;10.00;99.90
57026;DHT22;43961;52.940;6.834;2024-02-21T13:31:46;10.10;99.90
57026;DHT22;43961;52.940;6.834;2024-02-21T13:34:11;10.10;99.90
57026;DHT22;43961;52.940;6.834;2024-02-21T13:36:37;10.10;99.90
57026;DHT22;43961;52.940;6.834;2024-02-21T13:39:02;10.10;99.90
57026;DHT22;43961;52.940;6.834;2024-02-21T13:41:30;10.10;99.90
57026;DHT22;43961;52.940;6.834;2024-02-21T13:43:56;10.10;99.90
57026;DHT22;43961;52.940;6.834;2024-02-21T13:46:22;10.20;99.90
57026;DHT22;43961;52.940;6.834;2024-02-21T13:48:47;10.20;99.90
57026;DHT22;43961;52.940;6.834;2024-02-21T13:51:13;10.20;99.90
57026;DHT22;43961;52.940;6.834;2024-02-21T13:53:39;10.20;99.90
57026;DHT22;43961;52.940;6.834;2024-02-21T13:56:05;10.20;99.90
57026;DHT22;43961;52.940;6.834;2024-02-21T13:58:31;10.20;99.90
57026;DHT22;43961;52.940;6.834;2024-02-21T14:00:56;10.20;99.90
57026;DHT22;43961;52.940;6.834;2024-02-21T14:03:22;10.10;99.90
57026;DHT22;43961;52.940;6.834;2024-02-21T14:05:48;10.20;99.90
57026;DHT22;43961;52.940;6.834;2024-02-21T14:08:16;10.10;99.90
57026;DHT22;43961;52.940;6.834;2024-02-21T14:10:43;10.10;99.90
57026;DHT22;43961;52.940;6.834;2024-02-21T14:13:09;10.10;99.90
57026;DHT22;43961;52.940;6.834;2024-02-21T14:15:35;10.10;99.90
57026;DHT22;43961;52.940;6.834;2024-02-21T14:18:03;10.10;99.90
57026;DHT22;43961;52.940;6.834;2024-02-21T14:20:31;10.10;99.90
57026;DHT22;43961;52.940;6.834;2024-02-21T14:22:57;10.00;99.90
57026;DHT22;43961;52.940;6.834;2024-02-21T14:25:23;9.90;99.90
57026;DHT22;43961;52.940;6.834;2024-02-21T14:27:48;9.90;99.90
57026;DHT22;43961;52.940;6.834;2024-02-21T14:30:14;9.90;99.90
57026;DHT22;43961;52.940;6.834;2024-02-21T14:32:43;9.90;99.90
57026;DHT22;43961;52.940;6.834;2024-02-21T14:35:09;9.90;99.90
57026;DHT22;43961;52.940;6.834;2024-02-21T14:37:34;9.80;99.90
57026;DHT22;43961;52.940;6.834;2024-02-21T14:40:00;9.80;99.90
57026;DHT22;43961;52.940;6.834;2024-02-21T14:42:26;9.80;99.90
57026;DHT22;43961;52.940;6.834;2024-02-21T14:44:51;9.80;99.90
57026;DHT22;43961;52.940;6.834;2024-02-21T14:47:17;9.80;99.90
57026;DHT22;43961;52.940;6.834;2024-02-21T14:49:42;9.80;99.90
57026;DHT22;43961;52.940;6.834;2024-02-21T14:52:08;9.80;99.90
57026;DHT22;43961;52.940;6.834;2024-02-21T14:54:37;9.80;99.90
57026;DHT22;43961;52.940;6.834;2024-02-21T14:57:03;9.70;99.90
57026;DHT22;43961;52.940;6.834;2024-02-21T14:59:29;9.70;99.90
57026;DHT22;43961;52.940;6.834;2024-02-21T15:01:54;9.70;99.90
57026;DHT22;43961;52.940;6.834;2024-02-21T15:04:20;9.70;99.90
57026;DHT22;43961;52.940;6.834;2024-02-21T15:06:46;9.70;99.90
57026;DHT22;43961;52.940;6.834;2024-02-21T15:09:11;9.60;99.90
57026;DHT22;43961;52.940;6.834;2024-02-21T15:11:37;9.60;99.90
57026;DHT22;43961;52.940;6.834;2024-02-21T15:14:02;9.60;99.90
57026;DHT22;43961;52.940;6.834;2024-02-21T15:16:28;9.60;99.90
57026;DHT22;43961;52.940;6.834;2024-02-21T15:18:54;9.60;99.90
57026;DHT22;43961;52.940;6.834;2024-02-21T15:21:20;9.60;99.90
57026;DHT22;43961;52.940;6.834;2024-02-21T15:23:45;9.60;99.90
57026;DHT22;43961;52.940;6.834;2024-02-21T15:26:11;9.60;99.90
57026;DHT22;43961;52.940;6.834;2024-02-21T15:28:37;9.60;99.90
57026;DHT22;43961;52.940;6.834;2024-02-21T15:31:02;9.60;99.90
57026;DHT22;43961;52.940;6.834;2024-02-21T15:33:29;9.60;99.90
57026;DHT22;43961;52.940;6.834;2024-02-21T15:35:54;9.60;99.90
57026;DHT22;43961;52.940;6.834;2024-02-21T15:38:20;9.60;99.90
57026;DHT22;43961;52.940;6.834;2024-02-21T15:40:46;9.60;99.90
57026;DHT22;43961;52.940;6.834;2024-02-21T15:43:11;9.60;99.90
57026;DHT22;43961;52.940;6.834;2024-02-21T15:45:37;9.60;99.90